Abiquiu, NM

9:36 AM MST on November 22, 2014 (GMT -0700)
Plaza Blanca | Change Station
CLOSE
Current Station
Personal Weather Station
Location: Abiquiu, NM
Elevation: 6154 ft
Nearby Weather Stations

Elev 6154 ft 36.22 °N, 106.28 °W | Updated 3 seconds ago

Clear
Clear
33.1 °F
Feels Like 33 °F
N
0.2
Wind Variable Wind from NW
Gusts 0.2 mph

Today
High -- | Low -- °F
--% Chance of Precip.
Yesterday
High -- | Low -- °F
Precip. -- in
6:48 AM 4:53 PM
New Moon, 0% visible
Pressure 30.11 in
Visibility 10.0 miles
Clouds Clear
Windchill 33 °F
Dew Point 24 °F
Humidity 68%
Rainfall 0.00 in
Snow Depth Not available.
UV 2 out of 12
Pollen 2.80 out of 12
Air Quality Not available.
Flu Activity Not available.
METAR KLAM 221615Z AUTO 00000KT 10SM CLR 03/M06 A3011 RMK AO2 T00281059

More Conditions Fewer Conditions

Pressure 30.11 in
Visibility 10.0 miles
Clouds Clear
Windchill 33 °F
Dew Point 24 °F
Humidity 68%
Rainfall 0.00 in
Snow Depth Not available.
UV 2 out of 12
Pollen 2.80 out of 12
Air Quality Not available.
Flu Activity Not available.
METAR KLAM 221615Z AUTO 00000KT 10SM CLR 03/M06 A3011 RMK AO2 T00281059

More Conditions Fewer Conditions

10-Day Weather Forecast

Almanac

Astronomy

Nov. 22, 2014 Rise Set
Actual Time
Civil Twilight
Nautical Twilight
Astronomical Twilight
Moon
Length of Visible Light
Length of Day
Tomorrow will be .
, % of the Moon is Illuminated

Today's Extremes

State Highs State Lows

Community

WunderPhotos

Upload Photos

1,772,847 photos uploaded!

WunderBlogs® & News

Nearby

Air Quality

  Air Quality AQ Index Pollutant
Not available.

Snow Depth

Station Depth Elevation

Earthquake Activity

City Distance Mag. Time & Date
Minimum magnitude displayed is 2.5.

Coastal Water Temperatures

Place Temperature

Nearby Weather Stations